Time;durP1;ratioP1;P1;durP2;ratioP2;P2;SDS_P1;SDS_P2;PMS_P1;PMS_P2;Temp;Humidity;BMP_temperature;BMP_pressure;BME280_temperature;BME280_humidity;BME280_pressure;Samples;Min_cycle;Max_cycle;Signal;HPM_P1;HPM_P2
2021/12/28 00:01:16;;;;;;;11.75;8.77;;;1.00;99.90;;;;;;6034112;23;20257;-69
2021/12/28 00:03:48;;;;;;;8.93;8.00;;;1.00;99.90;;;;;;6034569;23;20650;-72
2021/12/28 00:06:19;;;;;;;9.98;8.75;;;0.90;99.90;;;;;;6033592;23;20494;-71
2021/12/28 00:08:51;;;;;;;7.80;6.95;;;0.80;99.90;;;;;;6035415;23;20186;-72
2021/12/28 00:11:21;;;;;;;8.13;7.20;;;0.80;99.90;;;;;;6035619;23;20201;-70
2021/12/28 00:13:59;;;;;;;9.05;6.93;;;0.90;99.90;;;;;;6025669;23;20192;-69
2021/12/28 00:17:58;;;;;;;11.32;7.47;;;0.90;99.90;;;;;;6031767;23;20682;-69
2021/12/28 00:19:26;;;;;;;9.32;8.05;;;0.80;99.90;;;;;;6023385;23;20186;-69
2021/12/28 00:21:57;;;;;;;14.98;10.88;;;0.80;99.90;;;;;;6031510;23;20190;-69
2021/12/28 00:24:30;;;;;;;14.18;12.57;;;1.00;99.90;;;;;;6031608;23;20186;-69
2021/12/28 00:27:01;;;;;;;14.50;9.35;;;0.90;99.90;;;;;;6028228;23;20277;-69
2021/12/28 00:29:33;;;;;;;9.90;8.60;;;0.80;99.90;;;;;;6047107;23;20209;-70
2021/12/28 00:32:06;;;;;;;8.10;7.10;;;0.80;99.90;;;;;;6062456;23;20236;-70
2021/12/28 00:34:38;;;;;;;12.77;7.57;;;0.80;99.90;;;;;;6062977;23;20195;-70
2021/12/28 00:37:09;;;;;;;9.30;7.35;;;0.80;99.90;;;;;;6062972;23;20518;-69
2021/12/28 00:39:41;;;;;;;8.43;7.40;;;0.90;99.90;;;;;;6063976;23;20185;-70
2021/12/28 00:42:13;;;;;;;16.38;11.90;;;0.80;99.90;;;;;;6060451;23;20185;-71
2021/12/28 00:44:44;;;;;;;18.33;13.20;;;0.70;99.90;;;;;;6057371;23;20269;-69
2021/12/28 00:47:18;;;;;;;17.52;12.25;;;0.90;99.90;;;;;;6058652;23;20276;-69
2021/12/28 00:49:48;;;;;;;9.82;8.82;;;0.80;99.90;;;;;;6060860;23;20642;-71
2021/12/28 00:52:19;;;;;;;13.10;9.80;;;0.80;99.90;;;;;;6063145;23;20555;-71
2021/12/28 00:54:50;;;;;;;11.95;9.25;;;0.80;99.90;;;;;;6057943;23;20676;-72
2021/12/28 00:57:21;;;;;;;10.00;8.32;;;0.80;99.90;;;;;;6062119;23;20689;-72
2021/12/28 00:59:52;;;;;;;12.85;10.77;;;0.80;99.90;;;;;;6063951;23;20237;-70
2021/12/28 01:02:25;;;;;;;10.63;9.48;;;0.80;99.90;;;;;;6062149;23;20646;-71
2021/12/28 01:04:56;;;;;;;13.25;11.27;;;0.80;99.90;;;;;;6063052;23;20252;-69
2021/12/28 01:07:27;;;;;;;9.45;8.32;;;0.80;99.90;;;;;;6062152;23;20185;-72
2021/12/28 01:09:58;;;;;;;10.82;8.50;;;0.80;99.90;;;;;;6062188;23;20530;-71
2021/12/28 01:12:29;;;;;;;11.73;9.70;;;0.90;99.90;;;;;;6064091;23;20470;-71
2021/12/28 01:15:00;;;;;;;13.35;9.65;;;1.00;99.90;;;;;;6057669;23;20517;-70
2021/12/28 01:17:33;;;;;;;11.70;9.82;;;0.90;99.90;;;;;;6059917;23;20221;-71
2021/12/28 01:20:06;;;;;;;12.30;9.68;;;1.00;99.90;;;;;;6060743;23;20199;-70
2021/12/28 01:22:38;;;;;;;11.45;8.80;;;1.00;99.90;;;;;;6061770;23;20203;-69
2021/12/28 01:25:11;;;;;;;10.38;8.55;;;0.90;99.90;;;;;;6062228;23;20261;-70
2021/12/28 01:27:42;;;;;;;11.85;8.20;;;0.90;99.90;;;;;;6061753;23;20186;-72
2021/12/28 01:30:16;;;;;;;13.70;9.00;;;1.00;99.90;;;;;;6061465;23;20209;-70
2021/12/28 01:32:49;;;;;;;11.30;9.65;;;0.90;99.90;;;;;;6061945;23;20186;-70
2021/12/28 01:35:21;;;;;;;10.50;9.18;;;0.90;99.90;;;;;;6058038;23;20542;-71
2021/12/28 01:37:52;;;;;;;12.75;9.20;;;0.70;99.90;;;;;;6066755;23;20181;-70
2021/12/28 01:40:25;;;;;;;12.90;8.63;;;0.70;99.90;;;;;;6059674;23;20185;-69
2021/12/28 01:42:59;;;;;;;9.85;8.80;;;0.70;99.90;;;;;;6061939;23;20191;-71
2021/12/28 01:45:37;;;;;;;10.52;8.07;;;0.70;99.90;;;;;;6062257;23;20189;-75
2021/12/28 01:48:17;;;;;;;10.50;8.50;;;0.70;99.90;;;;;;6052060;23;20658;-74
2021/12/28 01:50:50;;;;;;;11.60;9.32;;;0.70;99.90;;;;;;6062816;23;20256;-73
2021/12/28 01:53:23;;;;;;;9.25;8.40;;;0.70;99.90;;;;;;6061898;23;20658;-74
2021/12/28 01:55:57;;;;;;;12.60;8.85;;;0.70;99.90;;;;;;6059825;23;20198;-73
2021/12/28 01:58:28;;;;;;;10.48;9.00;;;0.70;99.90;;;;;;6055692;23;20211;-74
2021/12/28 02:01:00;;;;;;;10.80;8.80;;;0.70;99.90;;;;;;6062169;23;20189;-74
2021/12/28 02:03:34;;;;;;;9.52;8.52;;;0.70;99.90;;;;;;6061165;23;20371;-75
2021/12/28 02:06:06;;;;;;;131.30;33.00;;;0.70;99.90;;;;;;6059392;23;20189;-73
2021/12/28 02:08:38;;;;;;;13.98;9.85;;;0.80;99.90;;;;;;6062149;23;20190;-73
2021/12/28 02:14:25;;;;;;;11.30;8.23;;;0.70;99.90;;;;;;6062145;23;20224;-73
2021/12/28 02:16:56;;;;;;;10.23;8.57;;;0.70;99.90;;;;;;6061305;23;20201;-73
2021/12/28 02:19:29;;;;;;;10.35;9.15;;;0.80;99.90;;;;;;6060615;23;20181;-73
2021/12/28 02:22:07;;;;;;;10.68;8.70;;;0.80;99.90;;;;;;6061782;23;20561;-74
2021/12/28 02:24:39;;;;;;;11.93;9.52;;;0.70;99.90;;;;;;6061390;23;20185;-73
2021/12/28 02:27:10;;;;;;;13.88;9.13;;;0.80;99.90;;;;;;6061119;23;20483;-73
2021/12/28 02:29:41;;;;;;;11.93;9.43;;;0.80;99.90;;;;;;6056857;23;20624;-72
2021/12/28 02:32:12;;;;;;;14.45;10.13;;;0.80;99.90;;;;;;6061105;23;20181;-73
2021/12/28 02:34:45;;;;;;;14.15;10.60;;;0.90;99.90;;;;;;6060052;23;20185;-74
2021/12/28 02:37:20;;;;;;;13.77;10.30;;;1.00;99.90;;;;;;6063661;23;20221;-74
2021/12/28 02:39:53;;;;;;;10.80;9.70;;;1.00;99.90;;;;;;6061346;23;20197;-74
2021/12/28 02:42:26;;;;;;;12.48;9.38;;;0.90;99.90;;;;;;6062891;23;20189;-74
2021/12/28 02:45:07;;;;;;;12.00;9.23;;;1.00;99.90;;;;;;6060517;23;20260;-73
2021/12/28 02:47:44;;;;;;;13.38;10.55;;;0.90;99.90;;;;;;6061379;23;20495;-73
2021/12/28 02:50:19;;;;;;;14.13;10.85;;;0.90;99.90;;;;;;6059957;23;20215;-73
2021/12/28 02:52:52;;;;;;;13.57;10.95;;;0.90;99.90;;;;;;6061157;23;20189;-74
2021/12/28 02:55:26;;;;;;;12.85;10.77;;;0.90;99.90;;;;;;6061367;23;20191;-75
2021/12/28 02:58:01;;;;;;;14.60;10.75;;;0.80;99.90;;;;;;6061142;23;20211;-73
2021/12/28 03:00:36;;;;;;;13.23;11.10;;;0.80;99.90;;;;;;6050468;23;20184;-73
2021/12/28 03:03:08;;;;;;;13.57;10.15;;;0.70;99.90;;;;;;6058816;23;20470;-73
2021/12/28 03:05:46;;;;;;;15.55;11.43;;;0.60;99.90;;;;;;6061976;23;20264;-74
2021/12/28 03:08:51;;;;;;;17.08;12.80;;;0.70;99.90;;;;;;6051952;23;20188;-74
2021/12/28 03:11:50;;;;;;;15.50;11.70;;;0.80;99.90;;;;;;6019126;23;20548;-75
2021/12/28 03:39:41;;;;;;;14.45;12.50;;;0.90;99.90;;;;;;6034883;23;20205;-72
2021/12/28 03:42:18;;;;;;;18.35;12.68;;;0.80;99.90;;;;;;6037181;23;20186;-75
2021/12/28 03:44:49;;;;;;;16.38;12.07;;;0.80;99.90;;;;;;6033654;23;20208;-74
2021/12/28 03:47:20;;;;;;;13.90;12.02;;;0.80;99.90;;;;;;6032963;23;20651;-73
2021/12/28 03:49:51;;;;;;;15.52;12.30;;;0.70;99.90;;;;;;6032538;23;20186;-71
2021/12/28 03:52:22;;;;;;;16.92;12.48;;;0.70;99.90;;;;;;6033693;23;20185;-70
2021/12/28 03:54:55;;;;;;;16.02;12.40;;;0.70;99.90;;;;;;6029776;23;20186;-70
2021/12/28 03:57:25;;;;;;;17.33;12.88;;;0.80;99.90;;;;;;6033581;23;20202;-69
2021/12/28 03:59:56;;;;;;;16.30;12.10;;;0.90;99.90;;;;;;6033442;23;20197;-69
2021/12/28 04:02:27;;;;;;;15.57;13.35;;;1.00;99.90;;;;;;6032142;23;20192;-69
2021/12/28 04:04:58;;;;;;;16.58;13.70;;;0.90;99.90;;;;;;6032808;23;20186;-68
2021/12/28 04:07:29;;;;;;;17.15;13.05;;;1.00;99.90;;;;;;6033731;23;20525;-68
2021/12/28 04:10:04;;;;;;;14.70;13.15;;;0.80;99.90;;;;;;6031740;23;20225;-69
2021/12/28 04:12:35;;;;;;;17.38;13.27;;;0.80;99.90;;;;;;6035061;23;20213;-68
2021/12/28 04:15:06;;;;;;;16.83;14.63;;;0.80;99.90;;;;;;6034147;23;20285;-69
2021/12/28 04:17:38;;;;;;;19.63;13.95;;;0.80;99.90;;;;;;6032087;23;20208;-69
2021/12/28 04:23:58;;;;;;;17.50;13.73;;;0.70;99.90;;;;;;6027880;23;20211;-69
2021/12/28 04:26:31;;;;;;;20.73;13.88;;;0.80;99.90;;;;;;6033015;23;20685;-69
2021/12/28 04:29:02;;;;;;;20.17;14.70;;;0.80;99.90;;;;;;6033562;23;20218;-69
2021/12/28 04:31:32;;;;;;;21.23;15.18;;;0.90;99.90;;;;;;6032015;23;20190;-68
2021/12/28 04:34:04;;;;;;;25.10;15.73;;;0.80;99.90;;;;;;6031982;23;20197;-69
2021/12/28 04:36:35;;;;;;;15.38;13.40;;;0.80;99.90;;;;;;6036827;23;20293;-69
2021/12/28 04:39:07;;;;;;;16.15;13.00;;;0.80;99.90;;;;;;6062365;23;20242;-68
2021/12/28 04:41:40;;;;;;;14.88;13.38;;;0.80;99.90;;;;;;6062393;23;20219;-69
2021/12/28 04:44:13;;;;;;;20.08;15.50;;;0.70;99.90;;;;;;6059270;23;20622;-73
2021/12/28 04:46:44;;;;;;;18.10;14.88;;;0.80;99.90;;;;;;6059425;23;20477;-69
2021/12/28 04:49:15;;;;;;;21.30;14.75;;;0.80;99.90;;;;;;6060941;23;20189;-70
2021/12/28 04:51:47;;;;;;;18.55;14.55;;;0.90;99.90;;;;;;6061993;23;20206;-73
2021/12/28 04:54:18;;;;;;;17.20;13.50;;;0.90;99.90;;;;;;6061200;23;20185;-70
2021/12/28 04:56:51;;;;;;;19.20;13.05;;;0.90;99.90;;;;;;6061306;23;20498;-71
2021/12/28 04:59:22;;;;;;;12.50;11.10;;;0.90;99.90;;;;;;6060268;23;20606;-70
2021/12/28 05:01:52;;;;;;;15.10;11.35;;;0.80;99.90;;;;;;6062939;23;20185;-71
2021/12/28 05:04:23;;;;;;;14.02;10.43;;;0.90;99.90;;;;;;6060631;23;20185;-69
2021/12/28 05:06:54;;;;;;;12.85;9.45;;;0.90;99.90;;;;;;6062013;23;20185;-71
2021/12/28 05:09:25;;;;;;;13.90;9.98;;;1.00;99.90;;;;;;6057677;23;20193;-71
2021/12/28 05:11:58;;;;;;;11.18;9.55;;;0.90;99.90;;;;;;6063882;23;20185;-73
2021/12/28 05:14:29;;;;;;;13.38;9.27;;;0.90;99.90;;;;;;6060977;23;20207;-71
2021/12/28 05:16:59;;;;;;;10.98;9.30;;;0.80;99.90;;;;;;6060204;23;20681;-70
2021/12/28 05:19:32;;;;;;;13.07;10.80;;;0.80;99.90;;;;;;6060211;23;20210;-71
2021/12/28 05:22:08;;;;;;;10.10;8.32;;;0.80;99.90;;;;;;6058987;23;20185;-72
2021/12/28 05:24:51;;;;;;;10.30;9.02;;;0.90;99.90;;;;;;6061038;23;20212;-70
2021/12/28 05:27:27;;;;;;;11.10;8.32;;;0.90;99.90;;;;;;6058108;23;20729;-69
2021/12/28 05:30:30;;;;;;;7.82;6.95;;;1.00;99.90;;;;;;6061450;23;20571;-71
2021/12/28 05:33:04;;;;;;;8.10;7.28;;;1.00;99.90;;;;;;6061766;23;20243;-71
2021/12/28 05:35:35;;;;;;;9.85;8.88;;;0.90;99.90;;;;;;6060529;23;20192;-71
2021/12/28 05:38:06;;;;;;;10.25;8.45;;;0.80;99.90;;;;;;6061822;23;20654;-70
2021/12/28 05:40:40;;;;;;;10.65;8.75;;;0.90;99.90;;;;;;6061505;23;20611;-70
2021/12/28 05:43:13;;;;;;;10.15;8.35;;;0.90;99.90;;;;;;6063308;23;20268;-70
2021/12/28 05:45:45;;;;;;;10.45;8.00;;;1.00;99.90;;;;;;6059412;23;20288;-71
2021/12/28 05:48:19;;;;;;;12.10;7.47;;;0.90;99.90;;;;;;6058781;23;20185;-71
2021/12/28 05:50:51;;;;;;;13.27;11.88;;;1.00;99.90;;;;;;6057816;23;20573;-71
2021/12/28 05:53:22;;;;;;;15.70;12.88;;;0.90;99.90;;;;;;6058882;23;20598;-71
2021/12/28 05:55:53;;;;;;;16.15;12.88;;;0.80;99.90;;;;;;6057926;23;20227;-71
2021/12/28 05:58:25;;;;;;;20.67;15.40;;;0.80;99.90;;;;;;6061282;23;20208;-71
2021/12/28 06:00:59;;;;;;;15.13;13.38;;;0.90;99.90;;;;;;6059200;23;20189;-70
2021/12/28 06:03:30;;;;;;;15.20;12.63;;;0.90;99.90;;;;;;6057521;23;20193;-69
2021/12/28 06:06:01;;;;;;;18.00;12.52;;;0.90;99.90;;;;;;6059686;23;20666;-68
2021/12/28 06:08:32;;;;;;;13.90;11.45;;;0.90;99.90;;;;;;6059432;23;20178;-68
2021/12/28 06:11:05;;;;;;;16.70;12.60;;;0.90;99.90;;;;;;6062480;23;20196;-69
2021/12/28 06:13:40;;;;;;;15.55;13.02;;;0.80;99.90;;;;;;6060971;23;20224;-69
2021/12/28 06:16:11;;;;;;;15.48;13.90;;;0.80;99.90;;;;;;6061624;23;20212;-68
2021/12/28 06:18:42;;;;;;;17.95;14.00;;;0.80;99.90;;;;;;6057192;23;20216;-68
2021/12/28 06:21:13;;;;;;;15.98;12.60;;;0.90;99.90;;;;;;6058545;23;20496;-70
2021/12/28 06:23:47;;;;;;;15.43;12.63;;;0.80;99.90;;;;;;6058528;23;20533;-69
2021/12/28 06:26:18;;;;;;;17.77;13.40;;;0.70;99.90;;;;;;6063131;23;20275;-69
2021/12/28 06:28:52;;;;;;;15.07;11.68;;;0.80;99.90;;;;;;6060886;23;20187;-68
2021/12/28 06:31:31;;;;;;;14.63;12.65;;;0.70;99.90;;;;;;6061155;23;20181;-69
2021/12/28 06:34:08;;;;;;;15.02;12.98;;;0.70;99.90;;;;;;6054951;23;20185;-70
2021/12/28 06:36:39;;;;;;;14.10;12.60;;;0.80;99.90;;;;;;6063475;23;20259;-69
2021/12/28 06:39:10;;;;;;;14.70;12.23;;;0.70;99.90;;;;;;6061025;23;20681;-68
2021/12/28 06:41:41;;;;;;;15.10;13.30;;;0.70;99.90;;;;;;6060982;23;20192;-68
2021/12/28 06:44:14;;;;;;;15.20;10.35;;;0.80;99.90;;;;;;6062477;23;20185;-68
2021/12/28 06:46:45;;;;;;;12.95;11.27;;;0.70;99.90;;;;;;6059497;23;20191;-68
2021/12/28 06:49:16;;;;;;;15.90;12.35;;;0.70;99.90;;;;;;6062369;23;20188;-69
2021/12/28 06:51:48;;;;;;;14.30;11.23;;;0.80;99.90;;;;;;6063412;23;20288;-69
2021/12/28 06:54:19;;;;;;;12.65;10.85;;;0.80;99.90;;;;;;6064759;23;20496;-69
2021/12/28 06:56:50;;;;;;;16.40;11.75;;;0.90;99.90;;;;;;6063392;23;20532;-69
2021/12/28 06:59:22;;;;;;;12.45;10.48;;;0.90;99.90;;;;;;6060717;23;20224;-69
2021/12/28 07:01:54;;;;;;;16.95;10.70;;;0.90;99.90;;;;;;6061084;23;20185;-69
2021/12/28 07:04:25;;;;;;;14.95;10.05;;;0.80;99.90;;;;;;6063624;23;20201;-69
2021/12/28 07:06:56;;;;;;;13.45;11.13;;;0.80;99.90;;;;;;6062953;23;20192;-69
2021/12/28 07:09:28;;;;;;;13.98;11.75;;;0.80;99.90;;;;;;6056972;23;20184;-70
2021/12/28 07:11:59;;;;;;;14.65;11.15;;;0.90;99.90;;;;;;6060875;23;20666;-68
2021/12/28 07:14:32;;;;;;;14.38;10.80;;;0.70;99.90;;;;;;6062436;23;20285;-68
2021/12/28 07:17:08;;;;;;;13.63;11.25;;;0.80;99.90;;;;;;6061194;23;20188;-69
2021/12/28 07:19:39;;;;;;;14.63;12.05;;;0.80;99.90;;;;;;6061643;23;20539;-68
2021/12/28 07:22:11;;;;;;;11.88;10.68;;;0.90;99.90;;;;;;6062873;23;20274;-67
2021/12/28 07:24:42;;;;;;;13.55;12.15;;;0.80;99.90;;;;;;6064628;23;20189;-67
2021/12/28 07:27:13;;;;;;;14.63;11.98;;;0.90;99.90;;;;;;6057610;23;20205;-67
2021/12/28 07:29:45;;;;;;;12.90;11.55;;;0.80;99.90;;;;;;6062206;23;20710;-67
2021/12/28 07:32:16;;;;;;;13.02;11.60;;;0.80;99.90;;;;;;6059358;23;20185;-67
2021/12/28 07:34:47;;;;;;;15.70;12.20;;;0.80;99.90;;;;;;6061393;23;20249;-68
2021/12/28 07:37:18;;;;;;;13.85;12.38;;;0.90;99.90;;;;;;6063529;23;20611;-67
2021/12/28 07:39:50;;;;;;;18.30;12.75;;;0.90;99.90;;;;;;6062274;23;20212;-67
2021/12/28 07:42:21;;;;;;;13.07;11.10;;;0.90;99.90;;;;;;6059936;23;20189;-68
2021/12/28 07:44:54;;;;;;;14.65;11.18;;;0.90;99.90;;;;;;6063058;23;20199;-67
2021/12/28 07:47:25;;;;;;;13.65;11.00;;;0.90;99.90;;;;;;6060966;23;20677;-66
2021/12/28 07:49:55;;;;;;;13.77;10.95;;;0.90;99.90;;;;;;6061312;23;20232;-67
2021/12/28 07:52:26;;;;;;;19.73;11.68;;;0.80;99.90;;;;;;6063434;23;20193;-66
2021/12/28 07:54:57;;;;;;;14.57;11.23;;;0.80;99.90;;;;;;6063898;23;20185;-67
2021/12/28 07:57:28;;;;;;;12.23;10.98;;;0.80;99.90;;;;;;6062534;23;20185;-66
2021/12/28 08:00:00;;;;;;;13.68;11.15;;;1.00;99.90;;;;;;6061761;23;20208;-66
2021/12/28 08:02:31;;;;;;;13.77;11.00;;;0.90;99.90;;;;;;6060559;23;20187;-67
2021/12/28 08:05:02;;;;;;;13.18;11.55;;;0.80;99.90;;;;;;6063329;23;20648;-66
2021/12/28 08:07:33;;;;;;;12.38;10.20;;;0.80;99.90;;;;;;6060618;23;20186;-67
2021/12/28 08:10:04;;;;;;;13.13;10.45;;;0.90;99.90;;;;;;6060617;23;20192;-67
2021/12/28 08:12:35;;;;;;;13.45;10.68;;;0.90;99.90;;;;;;6065043;23;20207;-66
2021/12/28 08:15:09;;;;;;;13.93;9.93;;;0.90;99.90;;;;;;6062684;23;20660;-66
2021/12/28 08:17:40;;;;;;;12.63;10.27;;;0.90;99.90;;;;;;6062668;23;20188;-66
2021/12/28 08:20:13;;;;;;;11.77;9.57;;;0.90;99.90;;;;;;6061425;23;20224;-67
2021/12/28 08:22:45;;;;;;;12.60;9.60;;;0.90;99.90;;;;;;6062865;23;20186;-67
2021/12/28 08:25:18;;;;;;;9.18;7.72;;;0.90;99.90;;;;;;6062474;23;20607;-68
2021/12/28 08:27:49;;;;;;;9.70;7.53;;;0.90;99.90;;;;;;6060909;23;20557;-68
2021/12/28 08:30:23;;;;;;;11.75;8.00;;;0.90;99.90;;;;;;6060035;23;20185;-67
2021/12/28 08:32:53;;;;;;;12.88;8.15;;;0.90;99.90;;;;;;6062678;23;20197;-67
2021/12/28 08:35:24;;;;;;;10.60;7.28;;;0.90;99.90;;;;;;6061339;23;20531;-66
2021/12/28 08:37:55;;;;;;;9.38;7.65;;;0.90;99.90;;;;;;6058486;23;20220;-66
2021/12/28 08:40:26;;;;;;;9.48;7.18;;;0.90;99.90;;;;;;6061867;23;20521;-67
2021/12/28 08:42:57;;;;;;;12.88;11.13;;;0.90;99.90;;;;;;6062415;23;20523;-67
2021/12/28 08:45:30;;;;;;;12.70;8.77;;;0.90;99.90;;;;;;6061248;23;20205;-66
2021/12/28 08:48:01;;;;;;;9.20;7.50;;;0.90;99.90;;;;;;6058290;23;20208;-67
2021/12/28 08:50:32;;;;;;;7.38;6.60;;;0.90;99.90;;;;;;6060825;23;20181;-67
2021/12/28 08:53:03;;;;;;;8.45;7.38;;;0.80;99.90;;;;;;6062258;23;20186;-67
2021/12/28 08:55:34;;;;;;;7.20;6.50;;;0.90;99.90;;;;;;6060797;23;20532;-67
2021/12/28 08:58:05;;;;;;;7.85;6.95;;;0.90;99.90;;;;;;6060478;23;20642;-68
2021/12/28 09:00:39;;;;;;;8.30;6.63;;;1.00;99.90;;;;;;6060071;23;20630;-67
2021/12/28 09:03:10;;;;;;;7.85;6.95;;;1.00;99.90;;;;;;6061855;23;20190;-67
2021/12/28 09:05:41;;;;;;;8.63;7.60;;;1.00;99.90;;;;;;6059489;23;20718;-67
2021/12/28 09:08:16;;;;;;;9.52;7.07;;;1.00;99.90;;;;;;6059525;23;20498;-67
2021/12/28 09:10:48;;;;;;;8.27;7.05;;;1.00;99.90;;;;;;6061864;23;20260;-66
2021/12/28 09:13:19;;;;;;;7.05;6.22;;;1.10;99.90;;;;;;6063534;23;20646;-67
2021/12/28 09:15:52;;;;;;;9.07;7.60;;;1.10;99.90;;;;;;6059652;23;20217;-67
2021/12/28 09:18:22;;;;;;;9.07;7.72;;;1.00;99.90;;;;;;6058495;23;20185;-67
2021/12/28 09:20:55;;;;;;;7.15;6.20;;;1.00;99.90;;;;;;6062076;23;20222;-67
2021/12/28 09:23:26;;;;;;;9.05;6.35;;;1.10;99.90;;;;;;6061090;23;20185;-67
2021/12/28 09:26:17;;;;;;;7.93;5.78;;;1.10;99.90;;;;;;6059348;23;20245;-68
2021/12/28 09:28:48;;;;;;;9.35;6.55;;;1.10;99.90;;;;;;6061491;23;20186;-67
2021/12/28 09:31:20;;;;;;;7.22;6.40;;;1.10;99.90;;;;;;6060091;23;20264;-67
2021/12/28 09:33:51;;;;;;;8.48;6.53;;;1.10;99.90;;;;;;6062685;23;20189;-67
2021/12/28 09:36:22;;;;;;;9.13;7.00;;;1.00;99.90;;;;;;6061652;23;20185;-67
2021/12/28 09:38:53;;;;;;;7.85;6.75;;;1.00;99.90;;;;;;6061629;23;20352;-67
2021/12/28 09:41:24;;;;;;;7.43;6.55;;;0.90;99.90;;;;;;6061651;23;20554;-67
2021/12/28 09:43:55;;;;;;;8.00;6.05;;;1.00;99.90;;;;;;6061516;23;20196;-67
2021/12/28 09:46:27;;;;;;;6.70;5.88;;;1.00;99.90;;;;;;6061758;23;20196;-68
2021/12/28 09:48:58;;;;;;;7.72;6.15;;;1.00;99.90;;;;;;6060862;23;20192;-67
2021/12/28 09:51:30;;;;;;;7.28;6.50;;;1.00;99.90;;;;;;6061927;23;20188;-68
2021/12/28 09:54:01;;;;;;;9.73;6.95;;;1.10;99.90;;;;;;6063580;23;20189;-67
2021/12/28 09:56:33;;;;;;;7.97;5.90;;;1.00;99.90;;;;;;6060090;23;20560;-67
2021/12/28 09:59:04;;;;;;;7.50;6.80;;;1.10;99.90;;;;;;6057555;23;20982;-67
2021/12/28 10:01:37;;;;;;;8.18;6.40;;;1.00;99.90;;;;;;6061335;23;20212;-67
2021/12/28 10:04:08;;;;;;;7.45;5.60;;;1.00;99.90;;;;;;6060867;23;20260;-67
2021/12/28 10:06:39;;;;;;;9.70;6.60;;;1.10;99.90;;;;;;6064053;23;20654;-67
2021/12/28 10:09:12;;;;;;;8.88;7.28;;;1.10;99.90;;;;;;6061434;23;20208;-68
2021/12/28 10:11:48;;;;;;;9.05;6.75;;;1.10;99.90;;;;;;6059662;23;20188;-67
2021/12/28 10:14:20;;;;;;;8.13;6.68;;;1.10;99.90;;;;;;6060997;23;20504;-67
2021/12/28 10:16:56;;;;;;;7.88;6.57;;;1.10;99.90;;;;;;6059665;23;20212;-67
2021/12/28 10:19:38;;;;;;;11.20;8.77;;;1.10;99.90;;;;;;6062417;23;20294;-67
2021/12/28 10:22:28;;;;;;;7.32;5.93;;;1.20;99.90;;;;;;6060361;23;20181;-67
2021/12/28 10:25:02;;;;;;;7.88;6.70;;;0.90;99.90;;;;;;6063362;23;20198;-67
2021/12/28 10:27:33;;;;;;;9.38;6.53;;;1.00;99.90;;;;;;6057843;23;20245;-67
2021/12/28 10:30:10;;;;;;;7.10;5.40;;;0.90;99.90;;;;;;6059306;23;20186;-66
2021/12/28 10:32:44;;;;;;;6.60;5.88;;;1.00;99.90;;;;;;6059729;23;20185;-67
2021/12/28 10:35:18;;;;;;;6.13;5.30;;;1.00;99.90;;;;;;6062072;23;20740;-67
2021/12/28 10:37:51;;;;;;;9.48;5.68;;;1.00;99.90;;;;;;6061541;23;20235;-67
2021/12/28 10:40:28;;;;;;;7.43;5.32;;;1.10;99.90;;;;;;6061326;23;20202;-67
2021/12/28 10:43:04;;;;;;;7.75;5.00;;;1.10;99.90;;;;;;6061776;23;20271;-67
2021/12/28 10:45:39;;;;;;;5.97;5.47;;;1.10;99.90;;;;;;6059339;23;20507;-67
2021/12/28 10:48:15;;;;;;;5.43;4.75;;;1.00;99.90;;;;;;6061695;23;20216;-67
2021/12/28 10:50:51;;;;;;;4.93;3.92;;;1.00;99.90;;;;;;6061755;23;20645;-67
2021/12/28 10:53:25;;;;;;;4.55;4.15;;;1.00;99.90;;;;;;6056459;23;20583;-68
2021/12/28 10:55:59;;;;;;;3.80;3.50;;;1.00;99.90;;;;;;6061531;23;20233;-67
2021/12/28 10:58:40;;;;;;;6.45;4.00;;;1.00;99.90;;;;;;6061288;23;20189;-67
2021/12/28 11:01:14;;;;;;;10.70;4.55;;;1.00;99.90;;;;;;6056734;23;20211;-68
2021/12/28 11:03:47;;;;;;;4.53;3.75;;;1.10;99.90;;;;;;6062111;23;20260;-68
2021/12/28 11:06:22;;;;;;;4.90;4.50;;;1.00;99.90;;;;;;6061162;23;20184;-68
2021/12/28 11:08:55;;;;;;;5.68;3.80;;;1.00;99.90;;;;;;6061175;23;20188;-68
2021/12/28 11:11:30;;;;;;;4.45;3.50;;;0.90;99.90;;;;;;6063157;23;20199;-67
2021/12/28 11:14:03;;;;;;;4.97;4.57;;;1.00;99.90;;;;;;6061188;23;20240;-67
2021/12/28 11:16:35;;;;;;;4.22;3.70;;;1.00;99.90;;;;;;6061414;23;20185;-68
2021/12/28 11:19:11;;;;;;;6.53;3.95;;;1.00;99.90;;;;;;6059120;23;20588;-68
2021/12/28 11:21:43;;;;;;;4.72;3.78;;;1.00;99.90;;;;;;6057082;23;20608;-67
2021/12/28 11:24:16;;;;;;;5.30;3.65;;;1.00;99.90;;;;;;6059112;23;20225;-69
2021/12/28 11:26:48;;;;;;;4.63;3.72;;;1.00;99.90;;;;;;6059072;23;20188;-70
2021/12/28 11:29:20;;;;;;;3.80;3.50;;;1.00;99.90;;;;;;6060945;23;20190;-69
2021/12/28 11:31:53;;;;;;;5.53;3.40;;;1.00;99.90;;;;;;6059349;23;20182;-69
2021/12/28 11:34:28;;;;;;;5.80;3.70;;;1.10;99.90;;;;;;6061006;23;20256;-69
2021/12/28 11:37:00;;;;;;;4.93;4.50;;;1.00;99.90;;;;;;6063205;23;20652;-69
2021/12/28 11:39:34;;;;;;;6.18;3.80;;;1.00;99.90;;;;;;6064843;23;20220;-70
2021/12/28 11:42:07;;;;;;;6.40;4.75;;;1.00;99.90;;;;;;6063263;23;20205;-70
2021/12/28 11:44:38;;;;;;;4.47;3.47;;;1.00;99.90;;;;;;6062747;23;20185;-68
2021/12/28 11:47:14;;;;;;;5.75;3.20;;;1.00;99.90;;;;;;6063342;23;20542;-68
2021/12/28 11:49:47;;;;;;;4.38;2.88;;;1.00;99.90;;;;;;6059729;23;20207;-67
2021/12/28 11:52:20;;;;;;;4.07;3.20;;;1.00;99.90;;;;;;6062306;23;20207;-69
2021/12/28 11:54:53;;;;;;;3.13;2.83;;;1.00;99.90;;;;;;6062217;23;20290;-68
2021/12/28 11:57:27;;;;;;;4.05;3.10;;;1.00;99.90;;;;;;6064970;23;20658;-69
2021/12/28 12:00:03;;;;;;;4.57;2.80;;;1.00;99.90;;;;;;6062621;23;20189;-68
2021/12/28 12:02:41;;;;;;;3.55;2.90;;;1.00;99.90;;;;;;6062409;23;20292;-69
2021/12/28 12:05:19;;;;;;;2.58;2.30;;;0.90;99.90;;;;;;6063430;23;20253;-70
2021/12/28 12:08:06;;;;;;;2.55;2.35;;;0.90;99.90;;;;;;6063098;23;20185;-69
2021/12/28 12:10:38;;;;;;;3.53;2.97;;;0.90;99.90;;;;;;6062842;23;20229;-68
2021/12/28 12:13:20;;;;;;;2.95;2.65;;;0.90;99.90;;;;;;6062363;23;20185;-68
2021/12/28 12:15:54;;;;;;;3.05;2.83;;;1.00;99.90;;;;;;6060662;23;20186;-68
2021/12/28 12:18:29;;;;;;;3.20;2.97;;;1.00;99.90;;;;;;6061068;23;20654;-68
2021/12/28 12:21:05;;;;;;;4.07;2.90;;;1.00;99.90;;;;;;6062461;23;20216;-68
2021/12/28 12:23:45;;;;;;;3.75;3.20;;;0.90;99.90;;;;;;6064544;23;20681;-68
2021/12/28 12:26:24;;;;;;;3.85;3.10;;;1.00;99.90;;;;;;6063005;23;20243;-68
2021/12/28 12:28:56;;;;;;;3.55;3.25;;;0.90;99.90;;;;;;6062104;23;20185;-68
2021/12/28 12:31:36;;;;;;;4.95;3.53;;;0.90;99.90;;;;;;6062267;23;20621;-68
2021/12/28 12:34:29;;;;;;;5.13;4.72;;;0.90;99.90;;;;;;6063285;23;20185;-69
2021/12/28 12:37:02;;;;;;;15.63;6.70;;;0.90;99.90;;;;;;6062239;23;20267;-68
2021/12/28 12:39:40;;;;;;;1961.82;332.83;;;1.00;99.90;;;;;;6057854;23;20196;-67
2021/12/28 12:42:14;;;;;;;515.58;79.28;;;1.10;99.90;;;;;;6061958;23;20493;-68
2021/12/28 12:44:45;;;;;;;6.20;4.70;;;1.10;99.90;;;;;;6060210;23;20255;-68
2021/12/28 12:47:16;;;;;;;5.15;4.65;;;1.00;99.90;;;;;;6060644;23;20264;-68
2021/12/28 12:49:47;;;;;;;5.35;4.78;;;0.90;99.90;;;;;;6058966;23;20190;-68
2021/12/28 12:52:21;;;;;;;4.72;4.22;;;0.90;99.90;;;;;;6062281;23;20529;-68
2021/12/28 12:54:53;;;;;;;4.55;4.15;;;1.00;99.90;;;;;;6063825;23;20264;-68
2021/12/28 12:57:29;;;;;;;7.35;4.47;;;1.00;99.90;;;;;;6059789;23;20654;-69
2021/12/28 13:00:11;;;;;;;5.80;4.28;;;1.00;99.90;;;;;;6062001;23;20237;-67
2021/12/28 13:02:43;;;;;;;7.63;5.20;;;1.00;99.90;;;;;;6060004;23;20237;-67
2021/12/28 13:05:19;;;;;;;5.80;4.90;;;1.00;99.90;;;;;;6062783;23;20500;-69
2021/12/28 13:07:53;;;;;;;6.25;5.10;;;1.00;99.90;;;;;;6062301;23;20474;-70
2021/12/28 13:10:27;;;;;;;6.70;5.10;;;1.00;99.90;;;;;;6057448;23;20195;-69
2021/12/28 13:12:59;;;;;;;5.72;4.93;;;1.00;99.90;;;;;;6062185;23;20182;-68
2021/12/28 13:15:35;;;;;;;7.30;5.07;;;1.00;99.90;;;;;;6059746;23;20189;-69
2021/12/28 13:18:20;;;;;;;5.45;4.40;;;1.00;99.90;;;;;;6060767;23;20192;-68
2021/12/28 13:20:51;;;;;;;7.00;4.68;;;1.00;99.90;;;;;;6062345;23;20199;-67
2021/12/28 13:23:23;;;;;;;5.55;4.85;;;1.00;99.90;;;;;;6059501;23;20205;-68
2021/12/28 13:25:54;;;;;;;4.43;3.70;;;1.00;99.90;;;;;;6062266;23;20236;-68
2021/12/28 13:28:26;;;;;;;5.22;3.72;;;1.10;99.90;;;;;;6061583;23;20185;-68
2021/12/28 13:30:59;;;;;;;6.43;5.10;;;1.10;99.90;;;;;;6058153;23;20562;-67
2021/12/28 13:33:30;;;;;;;7.35;4.13;;;1.20;99.90;;;;;;6060608;23;20366;-67
2021/12/28 13:36:02;;;;;;;4.60;4.20;;;1.20;99.90;;;;;;6062210;23;20189;-66
2021/12/28 13:38:34;;;;;;;5.03;3.28;;;1.30;99.90;;;;;;6061587;23;20213;-68
2021/12/28 13:41:05;;;;;;;4.75;4.18;;;1.20;99.90;;;;;;6060440;23;20204;-68
2021/12/28 13:43:37;;;;;;;4.63;4.07;;;1.10;99.90;;;;;;6063408;23;20209;-68
2021/12/28 13:46:09;;;;;;;5.13;3.67;;;1.20;99.90;;;;;;6062477;23;20661;-68
2021/12/28 13:48:41;;;;;;;3.42;3.13;;;1.20;99.90;;;;;;6058647;23;20195;-68
2021/12/28 13:51:14;;;;;;;4.32;3.25;;;1.10;99.90;;;;;;6062155;23;20529;-68